Time;durP1;ratioP1;P1;durP2;ratioP2;P2;SDS_P1;SDS_P2;PMS_P1;PMS_P2;Temp;Humidity;BMP_temperature;BMP_pressure;BME280_temperature;BME280_humidity;BME280_pressure;Samples;Min_cycle;Max_cycle;Signal;HPM_P1;HPM_P2
2023/08/30 00:02:02;;;;;;;1.45;1.30;;;22.10;69.50;;;;;;5006669;28;20056;-76
2023/08/30 00:04:27;;;;;;;1.10;1.10;;;22.00;69.50;;;;;;4990592;28;21953;-76
2023/08/30 00:06:59;;;;;;;0.90;0.90;;;22.00;69.50;;;;;;5009201;28;20052;-75
2023/08/30 00:09:25;;;;;;;1.05;1.05;;;22.00;69.70;;;;;;5004919;28;20078;-76
2023/08/30 00:12:09;;;;;;;1.02;1.02;;;22.00;69.60;;;;;;4998773;28;20128;-76
2023/08/30 00:14:40;;;;;;;5.10;1.10;;;22.00;69.60;;;;;;5002033;28;20088;-76
2023/08/30 00:17:08;;;;;;;1.30;1.20;;;22.00;69.70;;;;;;4997022;28;20060;-76
2023/08/30 00:19:36;;;;;;;1.30;1.30;;;22.00;69.80;;;;;;5010981;28;20477;-76
2023/08/30 00:22:01;;;;;;;1.20;1.10;;;22.00;69.70;;;;;;5006960;28;20139;-75
2023/08/30 00:24:28;;;;;;;1.15;1.15;;;22.00;69.80;;;;;;5016118;28;21504;-76
2023/08/30 00:26:58;;;;;;;0.90;0.90;;;22.00;69.60;;;;;;4986818;28;20065;-76
2023/08/30 00:29:33;;;;;;;0.95;0.95;;;22.00;69.80;;;;;;5006917;28;20049;-76
2023/08/30 00:32:07;;;;;;;1.50;1.50;;;22.00;69.90;;;;;;5011831;28;20053;-76
2023/08/30 00:34:33;;;;;;;1.10;1.10;;;22.00;69.80;;;;;;5012610;28;20049;-76
2023/08/30 00:36:59;;;;;;;1.38;1.27;;;22.00;70.00;;;;;;5004140;28;20790;-76
2023/08/30 00:39:24;;;;;;;0.98;0.98;;;22.00;69.80;;;;;;5017466;28;20052;-76
2023/08/30 00:41:58;;;;;;;1.13;1.02;;;22.00;69.80;;;;;;4990816;28;20135;-75
2023/08/30 00:44:44;;;;;;;1.13;1.10;;;22.00;69.80;;;;;;4988301;28;20041;-76
2023/08/30 00:47:10;;;;;;;0.98;0.98;;;22.00;69.90;;;;;;5003214;28;20069;-76
2023/08/30 00:49:38;;;;;;;1.20;1.00;;;22.00;69.90;;;;;;5016532;28;20048;-76
2023/08/30 00:52:11;;;;;;;1.08;1.08;;;22.00;70.10;;;;;;5006822;28;20161;-76
2023/08/30 00:54:38;;;;;;;;;;;22.00;69.90;;;;;;5007949;28;20049;-76
2023/08/30 00:57:06;;;;;;;1.08;1.08;;;22.00;70.00;;;;;;5007581;28;20354;-76
2023/08/30 00:59:44;;;;;;;0.98;0.98;;;21.90;69.90;;;;;;5015513;28;20029;-76
2023/08/30 01:02:11;;;;;;;1.23;1.20;;;22.00;70.10;;;;;;5004163;28;20095;-76
2023/08/30 01:04:36;;;;;;;0.93;0.93;;;22.00;70.20;;;;;;5004049;28;20474;-76
2023/08/30 01:07:02;;;;;;;1.30;1.20;;;22.00;70.00;;;;;;5003261;28;20030;-75
2023/08/30 01:09:27;;;;;;;0.90;0.88;;;21.90;70.20;;;;;;5003087;28;20049;-75
2023/08/30 01:12:32;;;;;;;1.20;1.10;;;21.90;70.10;;;;;;4997542;28;20356;-75
2023/08/30 01:15:00;;;;;;;;;;;22.00;70.30;;;;;;4957846;28;20053;-76
2023/08/30 01:17:33;;;;;;;0.88;0.88;;;21.90;70.20;;;;;;4985345;28;20008;-76
2023/08/30 01:20:14;;;;;;;1.40;1.30;;;22.00;70.10;;;;;;4964537;28;20132;-76
2023/08/30 01:23:02;;;;;;;1.40;1.30;;;22.00;70.40;;;;;;4992894;28;20034;-76
2023/08/30 01:25:53;;;;;;;1.25;1.15;;;22.00;70.00;;;;;;4974460;28;20054;-75
2023/08/30 01:28:21;;;;;;;1.30;1.20;;;21.90;70.00;;;;;;4958899;28;20046;-76
2023/08/30 01:30:46;;;;;;;1.00;1.00;;;22.00;70.30;;;;;;4958755;28;20061;-76
2023/08/30 01:33:14;;;;;;;0.85;0.85;;;21.90;70.30;;;;;;4963465;28;20061;-76
2023/08/30 01:35:41;;;;;;;1.00;1.00;;;21.90;70.20;;;;;;4973879;28;20042;-76
2023/08/30 01:38:06;;;;;;;1.33;1.23;;;21.90;71.10;;;;;;4964744;28;20049;-75
2023/08/30 01:40:42;;;;;;;0.90;0.90;;;21.90;70.10;;;;;;4987569;28;20097;-75
2023/08/30 01:43:07;;;;;;;1.10;1.10;;;21.90;70.20;;;;;;4966318;28;20518;-76
2023/08/30 01:45:38;;;;;;;1.13;1.13;;;21.90;70.20;;;;;;4956861;28;20571;-75
2023/08/30 01:48:17;;;;;;;0.90;0.90;;;21.90;70.30;;;;;;4937854;28;20772;-76
2023/08/30 01:50:43;;;;;;;1.33;1.23;;;21.90;70.40;;;;;;5021738;28;20415;-75
2023/08/30 01:53:33;;;;;;;1.05;0.93;;;21.90;70.80;;;;;;4983259;28;20104;-76
2023/08/30 01:56:00;;;;;;;0.90;0.90;;;21.90;70.50;;;;;;4995585;28;21550;-76
2023/08/30 01:58:29;;;;;;;1.00;1.00;;;21.90;70.40;;;;;;5009149;28;20052;-75
2023/08/30 02:01:08;;;;;;;1.10;1.10;;;21.90;70.40;;;;;;5023429;28;20046;-75
2023/08/30 02:03:35;;;;;;;1.20;1.15;;;21.90;70.50;;;;;;5009036;28;20045;-75
2023/08/30 02:06:13;;;;;;;1.08;1.08;;;21.90;70.40;;;;;;5005441;28;20477;-75
2023/08/30 02:08:41;;;;;;;0.95;0.95;;;21.90;70.30;;;;;;5010127;28;21721;-75
2023/08/30 02:11:22;;;;;;;0.90;0.90;;;21.90;70.40;;;;;;5005567;28;20049;-75
2023/08/30 02:13:51;;;;;;;0.88;0.88;;;21.90;70.40;;;;;;5016950;28;20064;-75
2023/08/30 02:16:39;;;;;;;1.25;1.20;;;21.90;70.40;;;;;;5001314;28;20529;-75
2023/08/30 02:19:07;;;;;;;1.23;1.13;;;21.90;70.40;;;;;;5005084;28;20108;-75
2023/08/30 02:21:33;;;;;;;1.05;1.05;;;21.90;70.40;;;;;;5012733;28;20055;-75
2023/08/30 02:24:24;;;;;;;1.10;1.10;;;21.90;70.50;;;;;;5016513;28;20048;-75
2023/08/30 02:27:11;;;;;;;1.00;1.00;;;21.90;70.60;;;;;;4984767;28;20077;-75
2023/08/30 02:29:37;;;;;;;1.10;1.10;;;21.90;71.20;;;;;;5007289;28;20096;-75
2023/08/30 02:32:06;;;;;;;1.10;1.08;;;21.90;70.50;;;;;;5008548;28;20054;-75
2023/08/30 02:34:37;;;;;;;0.90;0.90;;;21.90;70.50;;;;;;4998327;28;20163;-75
2023/08/30 02:37:25;;;;;;;0.90;0.90;;;21.90;70.50;;;;;;5005464;28;20041;-75
2023/08/30 02:42:51;;;;;;;0.90;0.90;;;21.90;70.60;;;;;;5005243;28;21585;-75
2023/08/30 02:45:17;;;;;;;1.13;1.13;;;21.90;70.50;;;;;;5007189;28;20571;-75
2023/08/30 02:47:44;;;;;;;1.13;1.10;;;21.90;70.40;;;;;;5010071;28;20048;-75
2023/08/30 02:50:10;;;;;;;0.80;0.80;;;21.90;70.40;;;;;;5020735;28;20183;-75
2023/08/30 02:52:35;;;;;;;0.95;0.95;;;21.90;70.50;;;;;;5024813;28;20049;-76
2023/08/30 02:55:01;;;;;;;0.93;0.93;;;21.80;70.50;;;;;;5027110;28;20072;-75
2023/08/30 02:57:27;;;;;;;1.00;1.00;;;21.90;70.60;;;;;;5018555;28;20041;-75
2023/08/30 02:59:52;;;;;;;0.80;0.80;;;21.90;70.60;;;;;;5025993;28;20187;-75
2023/08/30 03:02:18;;;;;;;1.23;1.13;;;21.90;70.60;;;;;;5023333;28;20554;-75
2023/08/30 03:04:44;;;;;;;1.00;0.98;;;21.90;70.60;;;;;;5023587;28;20052;-75
2023/08/30 03:07:09;;;;;;;1.15;0.98;;;21.90;70.60;;;;;;5024337;28;20079;-75
2023/08/30 03:09:35;;;;;;;1.00;1.00;;;21.90;70.60;;;;;;5027966;28;20038;-75
2023/08/30 03:12:01;;;;;;;1.05;1.05;;;21.90;70.50;;;;;;5026377;28;20045;-74
2023/08/30 03:14:26;;;;;;;0.80;0.80;;;21.90;70.60;;;;;;5026335;28;20102;-75
2023/08/30 03:16:52;;;;;;;0.88;0.88;;;21.90;70.60;;;;;;5028603;28;20140;-75
2023/08/30 03:19:18;;;;;;;0.80;0.80;;;21.90;70.60;;;;;;5027447;28;20046;-76
2023/08/30 03:21:43;;;;;;;0.93;0.93;;;21.90;70.70;;;;;;5029296;28;20458;-76
2023/08/30 03:24:09;;;;;;;1.17;1.08;;;21.80;70.60;;;;;;5027567;28;20503;-76
2023/08/30 03:26:34;;;;;;;1.85;0.80;;;21.80;70.60;;;;;;5026185;28;20090;-75
2023/08/30 03:29:00;;;;;;;0.90;0.90;;;21.80;70.60;;;;;;5025973;28;20046;-75
2023/08/30 03:31:26;;;;;;;0.90;0.90;;;21.80;70.60;;;;;;5026544;28;20498;-76
2023/08/30 03:33:51;;;;;;;0.65;0.65;;;21.90;70.70;;;;;;5022913;28;20081;-76
2023/08/30 03:36:17;;;;;;;0.85;0.85;;;21.90;70.70;;;;;;5025052;28;20069;-76
2023/08/30 03:38:43;;;;;;;0.75;0.75;;;21.90;70.70;;;;;;5027541;28;20044;-76
2023/08/30 03:41:09;;;;;;;0.80;0.80;;;21.90;70.60;;;;;;5025942;28;20135;-76
2023/08/30 03:43:35;;;;;;;0.82;0.82;;;21.80;70.50;;;;;;5026896;28;20075;-76
2023/08/30 03:46:01;;;;;;;0.80;0.80;;;21.80;70.50;;;;;;5025092;28;20057;-75
2023/08/30 03:48:27;;;;;;;0.70;0.70;;;21.90;70.70;;;;;;5021635;28;20530;-76
2023/08/30 03:50:53;;;;;;;0.90;0.90;;;21.90;70.70;;;;;;5026125;28;20450;-76
2023/08/30 03:53:19;;;;;;;0.70;0.70;;;21.80;70.60;;;;;;5021450;28;20133;-76
2023/08/30 03:55:44;;;;;;;0.77;0.77;;;21.80;70.60;;;;;;5027287;28;20563;-76
2023/08/30 03:58:10;;;;;;;0.85;0.85;;;21.90;70.60;;;;;;5027815;28;20033;-76
2023/08/30 04:00:39;;;;;;;0.63;0.63;;;21.80;70.80;;;;;;5025007;28;20407;-76
2023/08/30 04:03:08;;;;;;;0.95;0.95;;;21.80;70.70;;;;;;5021220;28;20034;-75
2023/08/30 04:05:34;;;;;;;0.70;0.70;;;21.80;70.80;;;;;;5020756;28;20054;-75
2023/08/30 04:08:01;;;;;;;0.70;0.70;;;21.80;70.90;;;;;;5025920;28;20052;-76
2023/08/30 04:10:27;;;;;;;0.70;0.70;;;21.80;70.80;;;;;;5025259;28;20419;-76
2023/08/30 04:12:53;;;;;;;0.52;0.52;;;21.90;70.70;;;;;;5027749;28;20041;-76
2023/08/30 04:15:18;;;;;;;1.00;1.00;;;21.80;70.80;;;;;;5022293;28;20045;-76
2023/08/30 04:17:44;;;;;;;0.70;0.70;;;21.80;70.70;;;;;;5024115;28;20041;-76
2023/08/30 04:20:13;;;;;;;0.80;0.80;;;21.80;70.80;;;;;;5025048;28;20049;-75
2023/08/30 04:22:38;;;;;;;0.70;0.70;;;21.80;70.70;;;;;;5026337;28;20044;-76
2023/08/30 04:25:05;;;;;;;0.70;0.70;;;21.80;70.80;;;;;;5025457;28;20120;-75
2023/08/30 04:27:30;;;;;;;0.70;0.70;;;21.90;70.80;;;;;;5024929;28;20562;-76
2023/08/30 04:29:56;;;;;;;0.40;0.40;;;21.80;70.80;;;;;;5021160;28;20046;-76
2023/08/30 04:32:21;;;;;;;0.80;0.80;;;21.80;70.80;;;;;;5022553;28;20041;-76
2023/08/30 04:34:47;;;;;;;0.60;0.60;;;21.80;70.80;;;;;;5020674;28;20061;-76
2023/08/30 04:37:13;;;;;;;0.82;0.82;;;21.80;70.80;;;;;;5024894;28;20458;-76
2023/08/30 04:39:39;;;;;;;0.73;0.73;;;21.80;70.80;;;;;;5027227;28;20045;-76
2023/08/30 04:42:05;;;;;;;0.68;0.68;;;21.80;70.80;;;;;;5020936;28;20073;-76
2023/08/30 04:44:34;;;;;;;0.60;0.60;;;21.80;71.00;;;;;;5024525;28;20068;-76
2023/08/30 04:46:59;;;;;;;0.70;0.70;;;21.80;70.90;;;;;;5023897;28;20037;-76
2023/08/30 04:49:25;;;;;;;0.55;0.55;;;21.80;71.00;;;;;;5018219;28;21159;-76
2023/08/30 04:51:51;;;;;;;0.50;0.50;;;21.80;70.80;;;;;;5026427;28;20030;-74
2023/08/30 04:54:16;;;;;;;0.60;0.60;;;21.80;70.80;;;;;;5023449;28;20521;-74
2023/08/30 04:56:42;;;;;;;0.47;0.47;;;21.80;70.80;;;;;;5021824;28;20037;-75
2023/08/30 04:59:08;;;;;;;0.57;0.57;;;21.80;70.80;;;;;;5026380;28;20044;-74
2023/08/30 05:01:33;;;;;;;0.73;0.73;;;21.80;70.80;;;;;;5021326;28;20061;-74
2023/08/30 05:03:59;;;;;;;0.90;0.90;;;21.80;70.70;;;;;;5020963;28;20124;-74
2023/08/30 05:06:24;;;;;;;0.70;0.70;;;21.80;70.80;;;;;;5021739;28;20045;-76
2023/08/30 05:08:50;;;;;;;0.45;0.43;;;21.80;70.80;;;;;;5020765;28;20050;-76
2023/08/30 05:11:16;;;;;;;0.50;0.50;;;21.80;70.80;;;;;;5024108;28;20049;-77
2023/08/30 05:13:41;;;;;;;0.70;0.70;;;21.80;70.90;;;;;;5008151;28;20073;-76
2023/08/30 05:16:07;;;;;;;0.65;0.65;;;21.80;70.90;;;;;;5023510;28;20041;-76
2023/08/30 05:18:33;;;;;;;0.50;0.50;;;21.80;70.90;;;;;;5023897;28;20053;-76
2023/08/30 05:20:58;;;;;;;0.60;0.60;;;21.80;70.90;;;;;;5022986;28;20044;-76
2023/08/30 05:23:24;;;;;;;0.60;0.60;;;21.80;70.90;;;;;;5022152;28;20048;-76
2023/08/30 05:25:49;;;;;;;0.47;0.40;;;21.80;70.90;;;;;;5021294;28;20056;-76
2023/08/30 05:28:15;;;;;;;0.57;0.57;;;21.80;70.80;;;;;;5020916;28;20407;-76
2023/08/30 05:30:41;;;;;;;0.52;0.43;;;21.80;70.80;;;;;;5008676;28;20057;-76
2023/08/30 05:33:07;;;;;;;0.63;0.60;;;21.80;70.90;;;;;;5020943;28;20045;-76
2023/08/30 05:35:33;;;;;;;0.50;0.50;;;21.80;70.80;;;;;;5020228;28;20056;-77
2023/08/30 05:37:58;;;;;;;0.32;0.32;;;21.80;70.80;;;;;;5026801;28;20103;-76
2023/08/30 05:40:24;;;;;;;0.70;0.70;;;21.80;70.80;;;;;;5026903;28;20045;-76
2023/08/30 05:42:50;;;;;;;1.02;0.50;;;21.80;70.90;;;;;;5024831;28;20061;-76
2023/08/30 05:45:15;;;;;;;0.47;0.47;;;21.80;70.80;;;;;;5022936;28;20045;-77
2023/08/30 05:47:41;;;;;;;0.40;0.40;;;21.80;70.80;;;;;;4669404;28;9999911;-76
2023/08/30 05:50:07;;;;;;;0.40;0.40;;;21.80;71.10;;;;;;5021499;28;20034;-77
2023/08/30 05:52:33;;;;;;;0.50;0.50;;;21.80;71.10;;;;;;5015661;28;20718;-73
2023/08/30 05:54:58;;;;;;;0.50;0.50;;;21.80;71.30;;;;;;5018310;28;20104;-76
2023/08/30 05:57:25;;;;;;;0.60;0.60;;;21.80;71.30;;;;;;5019230;28;20045;-77
2023/08/30 05:59:51;;;;;;;0.40;0.40;;;21.80;71.30;;;;;;5019165;28;20491;-77
2023/08/30 06:02:16;;;;;;;0.70;0.70;;;21.80;71.20;;;;;;5019912;28;20038;-77
2023/08/30 06:04:42;;;;;;;0.60;0.60;;;21.80;71.40;;;;;;5018636;28;20473;-77
2023/08/30 06:07:08;;;;;;;0.43;0.43;;;21.80;71.30;;;;;;5017998;28;20045;-77
2023/08/30 06:09:33;;;;;;;0.40;0.40;;;21.80;71.30;;;;;;5019352;28;20507;-77
2023/08/30 06:11:59;;;;;;;0.40;0.40;;;21.80;71.50;;;;;;5017399;28;20052;-77
2023/08/30 06:14:24;;;;;;;1.70;0.40;;;21.80;71.10;;;;;;5018768;28;20503;-77
2023/08/30 06:16:50;;;;;;;0.40;0.40;;;21.80;71.00;;;;;;5000796;28;20069;-76
2023/08/30 06:19:15;;;;;;;0.47;0.47;;;21.80;71.10;;;;;;5018271;28;20451;-77
2023/08/30 06:21:41;;;;;;;0.35;0.35;;;21.80;70.90;;;;;;5001833;28;20415;-76
2023/08/30 06:24:07;;;;;;;1.52;0.50;;;21.80;71.00;;;;;;5020281;28;20054;-77
2023/08/30 06:26:32;;;;;;;0.40;0.40;;;21.80;71.10;;;;;;5019998;28;20049;-77
2023/08/30 06:28:58;;;;;;;0.63;0.50;;;21.80;70.70;;;;;;5020195;28;20045;-78
2023/08/30 06:31:24;;;;;;;1.10;0.60;;;21.80;68.80;;;;;;5018564;28;20046;-78
2023/08/30 06:33:50;;;;;;;0.98;0.60;;;21.70;68.40;;;;;;5020196;28;20174;-78
2023/08/30 06:36:17;;;;;;;0.75;0.70;;;21.70;68.90;;;;;;5022200;28;20124;-78
2023/08/30 06:38:43;;;;;;;1.80;0.80;;;21.50;67.90;;;;;;5005658;28;20046;-80
2023/08/30 06:41:08;;;;;;;2.45;0.77;;;21.50;68.10;;;;;;5023906;28;20507;-78
2023/08/30 06:43:34;;;;;;;4.15;0.90;;;21.50;68.60;;;;;;5024760;28;20414;-78
2023/08/30 06:46:00;;;;;;;1.83;1.17;;;21.50;68.20;;;;;;5021180;28;20042;-78
2023/08/30 06:48:25;;;;;;;1.88;1.20;;;21.50;68.00;;;;;;5017012;28;20053;-77
2023/08/30 06:50:51;;;;;;;2.67;1.42;;;21.00;68.80;;;;;;5024277;28;20518;-77
2023/08/30 06:53:17;;;;;;;1.60;1.00;;;20.70;70.10;;;;;;5025014;28;20128;-75
2023/08/30 06:55:42;;;;;;;2.22;1.10;;;20.60;70.60;;;;;;5025260;28;20119;-77
2023/08/30 06:58:08;;;;;;;1.60;1.10;;;20.40;70.70;;;;;;5024610;28;20049;-77
2023/08/30 07:00:33;;;;;;;1.48;0.90;;;20.30;70.90;;;;;;5025475;28;20041;-77
2023/08/30 07:02:59;;;;;;;2.30;1.02;;;20.20;71.00;;;;;;5027667;28;20168;-77
2023/08/30 07:05:25;;;;;;;1.40;1.30;;;20.20;71.20;;;;;;5008894;28;20079;-77
2023/08/30 07:07:50;;;;;;;2.05;1.00;;;20.10;71.30;;;;;;5025092;28;20403;-78
2023/08/30 07:10:16;;;;;;;1.27;0.80;;;20.00;71.70;;;;;;5023449;28;20061;-79
2023/08/30 07:12:41;;;;;;;2.15;1.00;;;20.00;71.70;;;;;;5025087;28;20606;-77
2023/08/30 07:15:07;;;;;;;1.10;0.93;;;19.90;72.60;;;;;;5005233;28;20067;-78
2023/08/30 07:17:33;;;;;;;4.60;0.77;;;19.90;72.00;;;;;;5025291;28;20048;-76
2023/08/30 07:19:59;;;;;;;1.75;1.10;;;19.90;72.10;;;;;;5026555;28;20045;-80
2023/08/30 07:22:25;;;;;;;2.88;1.17;;;19.90;72.30;;;;;;5023915;28;20393;-80
2023/08/30 07:24:51;;;;;;;1.50;1.13;;;19.80;72.30;;;;;;5025670;28;20045;-84
2023/08/30 07:27:16;;;;;;;2.35;1.35;;;19.70;72.60;;;;;;5026095;28;20091;-83
2023/08/30 07:29:43;;;;;;;1.42;0.80;;;19.80;72.50;;;;;;5027623;28;20038;-77
2023/08/30 07:32:09;;;;;;;3.65;1.58;;;19.70;72.80;;;;;;5022171;28;20042;-77
2023/08/30 07:34:34;;;;;;;2.22;1.10;;;19.80;72.40;;;;;;5023304;28;20059;-77
2023/08/30 07:37:00;;;;;;;1.02;0.85;;;19.80;72.20;;;;;;5021856;28;20049;-77
2023/08/30 07:39:26;;;;;;;1.98;1.23;;;19.80;72.60;;;;;;5001755;28;20042;-77
2023/08/30 07:41:51;;;;;;;2.35;1.20;;;19.70;72.40;;;;;;5021144;28;20049;-76
2023/08/30 07:44:17;;;;;;;3.83;1.15;;;19.70;72.60;;;;;;5023413;28;20478;-77
2023/08/30 07:46:43;;;;;;;3.08;1.17;;;19.70;72.70;;;;;;5024493;28;20075;-78
2023/08/30 07:49:08;;;;;;;1.90;1.30;;;19.70;72.70;;;;;;5022300;28;20091;-79
2023/08/30 07:51:34;;;;;;;1.75;1.30;;;19.70;73.00;;;;;;5021654;28;20045;-77
2023/08/30 07:53:59;;;;;;;1.13;1.00;;;19.80;72.70;;;;;;5024179;28;20133;-77
2023/08/30 07:56:25;;;;;;;1.55;0.93;;;19.90;72.70;;;;;;5023711;28;20072;-77
2023/08/30 07:58:51;;;;;;;2.42;1.20;;;20.10;71.60;;;;;;5019287;28;20056;-77
2023/08/30 08:01:17;;;;;;;2.58;1.23;;;20.20;70.70;;;;;;5021787;28;20080;-78
2023/08/30 08:03:42;;;;;;;1.10;1.00;;;20.20;70.60;;;;;;5020295;28;20045;-77
2023/08/30 08:06:08;;;;;;;1.25;0.80;;;20.30;70.70;;;;;;5022511;28;20049;-77
2023/08/30 08:08:33;;;;;;;0.95;0.80;;;20.20;70.40;;;;;;5021304;28;20052;-76
2023/08/30 08:10:59;;;;;;;1.27;1.10;;;20.20;70.50;;;;;;5025191;28;20486;-77
2023/08/30 08:13:25;;;;;;;3.42;1.40;;;20.30;70.10;;;;;;5019519;28;20033;-77
2023/08/30 08:15:50;;;;;;;3.88;1.30;;;20.30;69.80;;;;;;5022234;28;20588;-77
2023/08/30 08:18:16;;;;;;;1.05;0.75;;;20.30;69.90;;;;;;5020857;28;20049;-77
2023/08/30 08:20:42;;;;;;;1.20;0.73;;;20.30;69.40;;;;;;5019529;28;20080;-76
2023/08/30 08:23:08;;;;;;;1.55;1.00;;;20.30;69.00;;;;;;5019984;28;20052;-77
2023/08/30 08:25:34;;;;;;;2.22;0.80;;;20.40;69.00;;;;;;5022274;28;20049;-77
2023/08/30 08:27:59;;;;;;;2.03;1.00;;;20.40;69.00;;;;;;5021574;28;20042;-77
2023/08/30 08:30:25;;;;;;;1.23;1.00;;;20.40;68.40;;;;;;5000521;28;20044;-76
2023/08/30 08:32:50;;;;;;;1.60;1.17;;;20.40;68.40;;;;;;5016572;28;20042;-76
2023/08/30 08:35:16;;;;;;;1.20;0.85;;;20.40;68.80;;;;;;5021773;28;20048;-76
2023/08/30 08:37:42;;;;;;;1.52;1.05;;;20.40;68.40;;;;;;5017582;28;20057;-75
2023/08/30 08:40:11;;;;;;;2.60;1.08;;;20.40;68.20;;;;;;5025720;28;20499;-76
2023/08/30 08:42:36;;;;;;;1.65;1.00;;;20.40;68.20;;;;;;5020917;28;20447;-76
2023/08/30 08:45:03;;;;;;;0.93;0.70;;;20.60;68.40;;;;;;4658466;28;10000443;-77
2023/08/30 08:47:30;;;;;;;0.60;0.60;;;20.50;69.00;;;;;;5024280;28;20049;-77
2023/08/30 08:49:55;;;;;;;1.13;1.02;;;20.60;69.70;;;;;;5025062;28;20044;-77
2023/08/30 08:52:21;;;;;;;1.88;0.80;;;20.70;69.40;;;;;;5006946;28;20034;-77
2023/08/30 08:54:46;;;;;;;0.95;0.73;;;20.80;69.30;;;;;;5024387;28;20522;-77
2023/08/30 08:57:12;;;;;;;0.70;0.70;;;20.80;68.90;;;;;;5023616;28;20468;-77
2023/08/30 08:59:38;;;;;;;0.90;0.85;;;20.80;68.80;;;;;;5023389;28;20039;-76
2023/08/30 09:02:03;;;;;;;1.67;0.85;;;20.90;69.40;;;;;;5026575;28;20077;-77
2023/08/30 09:04:30;;;;;;;1.55;0.80;;;20.90;68.30;;;;;;5021861;28;20070;-76
2023/08/30 09:06:56;;;;;;;0.85;0.85;;;21.00;68.20;;;;;;5027036;28;20056;-76
2023/08/30 09:09:23;;;;;;;2.80;1.10;;;21.10;67.80;;;;;;5022708;28;20025;-77
2023/08/30 09:11:48;;;;;;;1.42;0.95;;;21.10;67.70;;;;;;5023447;28;20036;-76
2023/08/30 09:14:14;;;;;;;1.50;1.05;;;21.10;67.80;;;;;;5023451;28;20045;-76
2023/08/30 09:16:39;;;;;;;1.17;0.85;;;21.10;67.70;;;;;;5023352;28;20045;-76
2023/08/30 09:19:05;;;;;;;0.82;0.82;;;21.20;68.40;;;;;;5028177;28;20128;-76
2023/08/30 09:21:34;;;;;;;1.30;0.85;;;21.20;67.60;;;;;;5022023;28;20503;-76
2023/08/30 09:24:06;;;;;;;1.20;0.85;;;21.20;67.60;;;;;;5021014;28;20088;-76
2023/08/30 09:26:32;;;;;;;1.13;0.70;;;21.30;67.50;;;;;;5024235;28;20128;-76
2023/08/30 09:29:08;;;;;;;1.42;1.10;;;21.30;67.20;;;;;;5025033;28;20049;-76
2023/08/30 09:31:34;;;;;;;3.13;1.45;;;21.30;67.20;;;;;;5023913;28;20045;-77
2023/08/30 09:34:01;;;;;;;1.38;0.80;;;21.30;67.50;;;;;;5025144;28;20029;-76
2023/08/30 09:36:32;;;;;;;1.00;0.90;;;21.30;67.40;;;;;;5023909;28;20041;-77
2023/08/30 09:38:58;;;;;;;1.25;0.90;;;21.30;67.30;;;;;;5026152;28;20056;-77
2023/08/30 09:41:24;;;;;;;1.25;1.00;;;21.30;67.60;;;;;;5024188;28;20457;-77
2023/08/30 09:43:50;;;;;;;1.00;0.85;;;21.30;67.50;;;;;;5025338;28;20037;-76
2023/08/30 09:46:16;;;;;;;1.67;0.80;;;21.40;67.50;;;;;;5023247;28;20087;-76
2023/08/30 09:48:41;;;;;;;1.08;0.90;;;21.40;67.50;;;;;;5023368;28;20081;-76
2023/08/30 09:51:07;;;;;;;1.00;0.70;;;21.40;67.40;;;;;;5021272;28;20046;-76
2023/08/30 09:53:33;;;;;;;1.45;1.00;;;21.40;67.10;;;;;;5018705;28;20088;-76
2023/08/30 09:56:01;;;;;;;1.70;1.00;;;21.40;67.30;;;;;;4673836;28;9999739;-77
2023/08/30 09:58:27;;;;;;;1.50;0.90;;;21.50;67.10;;;;;;5020135;28;20049;-77
2023/08/30 10:00:53;;;;;;;1.45;1.15;;;21.50;67.30;;;;;;5002712;28;20050;-75
2023/08/30 10:03:19;;;;;;;1.13;0.85;;;21.50;66.80;;;;;;5021132;28;20519;-76
2023/08/30 10:05:44;;;;;;;1.95;0.90;;;21.60;67.00;;;;;;5019620;28;20091;-77
2023/08/30 10:08:10;;;;;;;1.58;0.90;;;21.60;66.70;;;;;;5020593;28;20092;-77
2023/08/30 10:10:36;;;;;;;1.13;0.80;;;21.60;66.70;;;;;;5023986;28;20586;-77
2023/08/30 10:13:01;;;;;;;1.77;1.38;;;21.60;66.70;;;;;;5023490;28;20042;-76
2023/08/30 10:15:27;;;;;;;1.70;1.17;;;21.60;66.60;;;;;;5017153;28;20053;-77
2023/08/30 10:17:54;;;;;;;1.27;0.80;;;21.70;66.70;;;;;;5024836;28;20136;-77
2023/08/30 10:20:19;;;;;;;1.45;0.88;;;21.60;66.60;;;;;;5025404;28;20037;-77
2023/08/30 10:22:45;;;;;;;1.13;0.88;;;21.70;66.50;;;;;;5024704;28;20513;-76
2023/08/30 10:25:16;;;;;;;0.90;0.88;;;21.70;66.20;;;;;;5012101;28;20611;-77
2023/08/30 10:27:43;;;;;;;0.85;0.80;;;21.60;66.00;;;;;;5028222;28;20040;-77
2023/08/30 10:30:09;;;;;;;0.98;0.90;;;21.60;66.10;;;;;;5027401;28;20041;-77
2023/08/30 10:32:44;;;;;;;1.27;0.82;;;21.60;65.90;;;;;;5028950;28;20030;-77
2023/08/30 10:35:17;;;;;;;1.23;0.68;;;21.60;65.80;;;;;;5029052;28;20559;-77
2023/08/30 10:37:56;;;;;;;1.10;1.00;;;21.60;65.70;;;;;;5026929;28;20041;-77
2023/08/30 10:40:22;;;;;;;1.67;0.90;;;21.60;65.60;;;;;;5026510;28;20056;-77
2023/08/30 10:43:02;;;;;;;0.90;0.80;;;21.70;65.70;;;;;;5022551;28;20038;-79
2023/08/30 10:45:27;;;;;;;1.77;0.90;;;21.60;65.80;;;;;;5024349;28;20041;-77
2023/08/30 10:47:57;;;;;;;0.90;0.70;;;21.60;66.30;;;;;;5025071;28;20531;-78
2023/08/30 10:50:33;;;;;;;0.90;0.70;;;21.70;65.70;;;;;;5007749;28;20045;-77
2023/08/30 10:52:58;;;;;;;1.42;0.90;;;21.70;65.90;;;;;;5014957;28;20076;-77
2023/08/30 10:55:24;;;;;;;3.83;1.05;;;21.80;66.80;;;;;;5025379;28;20049;-77
2023/08/30 10:57:59;;;;;;;2.08;1.10;;;21.80;67.70;;;;;;5023417;28;20049;-78
2023/08/30 11:00:24;;;;;;;1.33;1.05;;;21.80;69.00;;;;;;5025232;28;20061;-77
2023/08/30 11:02:51;;;;;;;1.67;1.40;;;21.80;68.60;;;;;;5020540;28;20096;-76
2023/08/30 11:05:17;;;;;;;3.95;1.30;;;21.80;70.60;;;;;;5024847;28;20064;-77
2023/08/30 11:07:43;;;;;;;1.27;0.93;;;21.80;72.40;;;;;;5024572;28;20114;-76
2023/08/30 11:10:09;;;;;;;1.50;1.13;;;21.90;72.00;;;;;;5026669;28;20044;-77
2023/08/30 11:12:35;;;;;;;1.80;1.08;;;21.90;71.50;;;;;;5024451;28;20132;-76
2023/08/30 11:15:01;;;;;;;1.33;1.05;;;22.00;70.90;;;;;;5025957;28;20045;-75
2023/08/30 11:17:27;;;;;;;0.80;0.80;;;22.00;70.10;;;;;;5025403;28;20045;-76
2023/08/30 11:20:13;;;;;;;2.15;1.10;;;22.00;68.80;;;;;;5025539;28;20080;-78
2023/08/30 11:22:42;;;;;;;2.28;1.13;;;22.00;67.90;;;;;;5024723;28;20041;-77
2023/08/30 11:25:09;;;;;;;1.10;1.00;;;22.00;66.80;;;;;;5022714;28;20065;-76
2023/08/30 11:27:34;;;;;;;2.63;1.08;;;22.00;66.10;;;;;;4329180;28;10000906;-77
2023/08/30 11:30:03;;;;;;;1.08;0.90;;;22.00;62.90;;;;;;5025096;28;20049;-76
2023/08/30 11:32:31;;;;;;;1.92;1.45;;;22.00;62.80;;;;;;5023934;28;20510;-76
2023/08/30 11:35:00;;;;;;;1.10;1.00;;;22.00;61.50;;;;;;5023957;28;20060;-76
2023/08/30 11:37:27;;;;;;;1.10;0.88;;;21.90;62.70;;;;;;5020656;28;20029;-76
2023/08/30 11:39:53;;;;;;;1.30;1.17;;;21.80;61.70;;;;;;5022627;28;20092;-76
2023/08/30 11:42:19;;;;;;;2.15;1.50;;;21.80;60.50;;;;;;5021462;28;20045;-76
2023/08/30 11:44:45;;;;;;;1.35;1.10;;;21.80;60.70;;;;;;5018609;28;20602;-76
2023/08/30 11:47:10;;;;;;;1.85;1.20;;;21.80;61.50;;;;;;5022442;28;20555;-76
2023/08/30 11:49:36;;;;;;;1.77;1.08;;;21.80;61.90;;;;;;5027016;28;20050;-77
2023/08/30 11:52:02;;;;;;;1.50;1.00;;;21.80;62.40;;;;;;5026023;28;20026;-77
2023/08/30 11:54:28;;;;;;;3.65;1.48;;;21.80;61.60;;;;;;5026822;28;20109;-77
2023/08/30 11:56:53;;;;;;;4.25;1.92;;;21.70;59.50;;;;;;5022493;28;20104;-77
2023/08/30 11:59:20;;;;;;;2.13;1.30;;;21.50;60.30;;;;;;5022241;28;20443;-78
2023/08/30 12:01:46;;;;;;;1.88;1.20;;;21.30;59.30;;;;;;5023868;28;20080;-77
2023/08/30 12:04:12;;;;;;;1.60;1.20;;;21.50;59.50;;;;;;5023990;28;20041;-76
2023/08/30 12:06:38;;;;;;;2.03;1.15;;;21.60;59.50;;;;;;5023442;28;20069;-77
2023/08/30 12:09:05;;;;;;;1.70;0.95;;;21.70;58.80;;;;;;5021383;28;21537;-76
2023/08/30 12:11:31;;;;;;;2.20;1.15;;;21.70;58.80;;;;;;5023932;28;20046;-77
2023/08/30 12:14:02;;;;;;;3.15;1.30;;;21.70;58.80;;;;;;5026094;28;20045;-76
2023/08/30 12:16:27;;;;;;;2.13;1.35;;;21.70;59.20;;;;;;5026598;28;20042;-77
2023/08/30 12:18:53;;;;;;;1.65;1.13;;;21.70;59.50;;;;;;5051616;28;20103;-76
2023/08/30 12:21:18;;;;;;;2.47;1.20;;;21.70;59.80;;;;;;5026376;28;20551;-76
2023/08/30 12:23:44;;;;;;;7.32;1.88;;;21.80;59.90;;;;;;5024349;28;20414;-76
2023/08/30 12:26:10;;;;;;;3.75;1.20;;;21.80;59.80;;;;;;5026487;28;20156;-76
2023/08/30 12:28:37;;;;;;;2.17;1.30;;;21.70;59.60;;;;;;5023485;28;20038;-76
2023/08/30 12:31:06;;;;;;;2.47;1.00;;;21.70;59.30;;;;;;5021797;28;20498;-77
2023/08/30 12:33:32;;;;;;;2.08;1.20;;;21.80;58.60;;;;;;5022475;28;20491;-78
2023/08/30 12:35:58;;;;;;;1.80;1.50;;;21.80;59.10;;;;;;5025095;28;20124;-77
2023/08/30 12:38:24;;;;;;;2.35;1.50;;;21.80;58.80;;;;;;5021193;28;20515;-77
2023/08/30 12:40:53;;;;;;;1.75;1.35;;;21.80;59.30;;;;;;5003993;28;20040;-77
2023/08/30 12:43:22;;;;;;;2.42;1.42;;;21.80;59.60;;;;;;5022574;28;20068;-79
2023/08/30 12:45:48;;;;;;;1.45;1.20;;;21.80;59.90;;;;;;5022467;28;20128;-77
2023/08/30 12:48:15;;;;;;;2.42;1.08;;;21.80;60.20;;;;;;5006983;28;20148;-77
2023/08/30 12:50:41;;;;;;;1.17;0.80;;;21.80;60.80;;;;;;5019576;28;20551;-78
2023/08/30 12:53:07;;;;;;;2.75;0.80;;;21.90;61.20;;;;;;5022837;28;20145;-79